createdAt,value
2022-12-23T00:01:23.652Z,7.30
2022-12-23T00:03:50.933Z,7.32
2022-12-23T00:06:18.805Z,7.29
2022-12-23T00:08:46.585Z,7.30
2022-12-23T00:11:20.045Z,7.30
2022-12-23T00:14:05.325Z,7.30
2022-12-23T00:16:32.017Z,7.30
2022-12-23T00:18:58.539Z,7.29
2022-12-23T00:21:24.958Z,7.28
2022-12-23T00:23:51.873Z,7.29
2022-12-23T00:26:23.558Z,7.30
2022-12-23T00:28:50.713Z,7.30
2022-12-23T00:31:18.760Z,7.32
2022-12-23T00:33:48.320Z,7.32
2022-12-23T00:36:19.138Z,7.31
2022-12-23T00:39:05.000Z,7.31
2022-12-23T00:41:50.772Z,7.32
2022-12-23T00:44:17.288Z,7.27
2022-12-23T00:46:43.811Z,7.28
2022-12-23T00:49:32.720Z,7.30
2022-12-23T00:52:00.049Z,7.30
2022-12-23T00:54:26.841Z,7.30
2022-12-23T00:56:53.536Z,7.30
2022-12-23T00:59:20.139Z,7.28
2022-12-23T01:02:05.667Z,7.29
2022-12-23T01:04:50.930Z,7.29
2022-12-23T01:07:17.393Z,7.27
2022-12-23T01:09:43.864Z,7.29
2022-12-23T01:12:10.316Z,7.28
2022-12-23T01:14:36.851Z,7.28
2022-12-23T01:17:03.490Z,7.30
2022-12-23T01:19:30.004Z,7.29
2022-12-23T01:21:56.500Z,7.29
2022-12-23T01:24:23.110Z,7.26
2022-12-23T01:26:49.529Z,7.30
2022-12-23T01:29:15.970Z,7.29
2022-12-23T01:31:42.437Z,7.30
2022-12-23T01:34:10.331Z,7.28
2022-12-23T01:36:37.151Z,7.29
2022-12-23T01:39:03.633Z,7.30
2022-12-23T01:41:51.032Z,7.28
2022-12-23T01:44:50.728Z,7.27
2022-12-23T01:47:31.370Z,7.24
2022-12-23T01:50:22.118Z,7.27
2022-12-23T01:53:07.770Z,7.25
2022-12-23T01:55:42.213Z,7.28
2022-12-23T01:58:20.732Z,7.25
2022-12-23T02:01:05.910Z,7.25
2022-12-23T02:03:44.786Z,7.26
2022-12-23T02:06:40.628Z,7.25
2022-12-23T02:09:18.441Z,7.24
2022-12-23T02:12:06.569Z,7.26
2022-12-23T02:15:30.468Z,7.22
2022-12-23T02:18:24.460Z,7.23
2022-12-23T02:21:15.475Z,7.23
2022-12-23T02:23:53.971Z,7.23
2022-12-23T02:26:42.218Z,7.24
2022-12-23T02:29:46.044Z,7.22
2022-12-23T02:32:35.259Z,7.22
2022-12-23T02:35:13.382Z,7.22
2022-12-23T02:38:00.705Z,7.23
2022-12-23T02:40:39.203Z,7.22
2022-12-23T02:43:25.092Z,7.21
2022-12-23T02:46:21.226Z,7.23
2022-12-23T02:48:53.184Z,7.23
2022-12-23T02:51:23.754Z,7.21
2022-12-23T02:53:54.680Z,7.23
2022-12-23T02:56:25.072Z,7.24
2022-12-23T02:58:58.463Z,7.23
2022-12-23T03:01:27.518Z,7.23
2022-12-23T03:03:54.226Z,7.24
2022-12-23T03:06:35.892Z,7.21
2022-12-23T03:09:02.417Z,7.24
2022-12-23T03:11:58.517Z,7.24
2022-12-23T03:14:36.341Z,7.24
2022-12-23T03:17:34.537Z,7.22
2022-12-23T03:20:19.382Z,7.24
2022-12-23T03:22:55.761Z,7.23
2022-12-23T03:25:33.040Z,7.23
2022-12-23T03:28:09.587Z,7.23
2022-12-23T03:30:39.315Z,7.24
2022-12-23T03:33:13.863Z,7.24
2022-12-23T03:35:45.331Z,7.25
2022-12-23T03:38:15.407Z,7.24
2022-12-23T03:40:47.904Z,7.25
2022-12-23T03:43:26.703Z,7.24
2022-12-23T03:45:59.084Z,7.22
2022-12-23T03:48:54.194Z,7.23
2022-12-23T03:51:26.895Z,7.23
2022-12-23T03:54:03.599Z,7.20
2022-12-23T03:56:38.618Z,7.25
2022-12-23T03:59:19.933Z,7.23
2022-12-23T04:02:07.060Z,7.20
2022-12-23T04:04:42.441Z,7.24
2022-12-23T04:07:41.612Z,7.22
2022-12-23T04:10:09.745Z,7.23
2022-12-23T04:12:36.710Z,7.22
2022-12-23T04:15:09.030Z,7.23
2022-12-23T04:17:39.007Z,7.21
2022-12-23T04:20:06.579Z,7.22
2022-12-23T04:22:33.023Z,7.23
2022-12-23T04:24:59.442Z,7.23
2022-12-23T04:27:25.892Z,7.21
2022-12-23T04:29:52.835Z,7.24
2022-12-23T04:32:19.284Z,7.21
2022-12-23T04:34:45.778Z,7.23
2022-12-23T04:37:12.203Z,7.25
2022-12-23T04:39:38.624Z,7.22
2022-12-23T04:42:05.116Z,7.22
2022-12-23T04:44:31.519Z,7.24
2022-12-23T04:46:58.044Z,7.20
2022-12-23T04:49:24.489Z,7.22
2022-12-23T04:51:50.947Z,7.22
2022-12-23T04:54:17.357Z,7.20
2022-12-23T04:56:43.787Z,7.23
2022-12-23T04:59:10.417Z,7.19
2022-12-23T05:01:37.038Z,7.23
2022-12-23T05:04:03.551Z,7.22
2022-12-23T05:06:30.006Z,7.22
2022-12-23T05:08:56.453Z,7.22
2022-12-23T05:11:23.071Z,7.20
2022-12-23T05:13:49.561Z,7.22
2022-12-23T05:16:16.061Z,7.20
2022-12-23T05:18:42.708Z,7.21
2022-12-23T05:21:09.579Z,7.20
2022-12-23T05:23:36.017Z,7.21
2022-12-23T05:26:02.581Z,7.19
2022-12-23T05:28:29.522Z,7.21
2022-12-23T05:31:04.130Z,7.19
2022-12-23T05:33:30.959Z,7.20
2022-12-23T05:35:57.789Z,7.21
2022-12-23T05:38:24.373Z,7.20
2022-12-23T05:40:51.973Z,7.20
2022-12-23T05:43:18.502Z,7.20
2022-12-23T05:45:45.225Z,7.18
2022-12-23T05:48:11.903Z,7.19
2022-12-23T05:50:39.296Z,7.19
2022-12-23T05:53:07.072Z,7.19
2022-12-23T05:55:34.623Z,7.19
2022-12-23T05:58:01.056Z,7.20
2022-12-23T06:00:27.701Z,7.21
2022-12-23T06:02:54.639Z,7.19
2022-12-23T06:05:21.942Z,7.20
2022-12-23T06:07:48.764Z,7.21
2022-12-23T06:10:15.216Z,7.16
2022-12-23T06:12:41.665Z,7.19
2022-12-23T06:15:08.623Z,7.18
2022-12-23T06:17:35.220Z,7.20
2022-12-23T06:20:01.770Z,7.20
2022-12-23T06:22:28.226Z,7.19
2022-12-23T06:24:54.599Z,7.18
2022-12-23T06:27:21.014Z,7.19
2022-12-23T06:29:47.944Z,7.18
2022-12-23T06:32:14.475Z,7.19
2022-12-23T06:34:41.002Z,7.20
2022-12-23T06:37:07.474Z,7.19
2022-12-23T06:39:33.927Z,7.16
2022-12-23T06:42:00.379Z,7.19
2022-12-23T06:44:26.902Z,7.19
2022-12-23T06:46:53.314Z,7.19
2022-12-23T06:49:19.719Z,7.20
2022-12-23T06:51:46.140Z,7.19
2022-12-23T06:54:12.837Z,7.21
2022-12-23T06:56:39.623Z,7.20
2022-12-23T06:59:06.108Z,7.21
2022-12-23T07:01:32.737Z,7.21
2022-12-23T07:03:59.303Z,7.21
2022-12-23T07:06:25.737Z,7.18
2022-12-23T07:08:52.116Z,7.22
2022-12-23T07:11:18.551Z,7.21
2022-12-23T07:13:46.006Z,7.21
2022-12-23T07:16:12.841Z,7.21
2022-12-23T07:18:39.325Z,7.20
2022-12-23T07:21:08.851Z,7.20
2022-12-23T07:23:39.779Z,7.17
2022-12-23T07:26:06.319Z,7.18
2022-12-23T07:28:32.721Z,7.18
2022-12-23T07:30:59.169Z,7.20
2022-12-23T07:33:25.599Z,7.20
2022-12-23T07:35:52.031Z,7.21
2022-12-23T07:38:18.493Z,7.21
2022-12-23T07:40:48.674Z,7.22
2022-12-23T07:43:15.315Z,7.22
2022-12-23T07:45:41.889Z,7.22
2022-12-23T07:48:08.800Z,7.21
2022-12-23T07:50:35.275Z,7.24
2022-12-23T07:53:01.748Z,7.24
2022-12-23T07:55:28.247Z,7.24
2022-12-23T07:57:54.652Z,7.24
2022-12-23T08:00:21.404Z,7.23
2022-12-23T08:02:48.184Z,7.26
2022-12-23T08:05:16.302Z,7.25
2022-12-23T08:07:44.938Z,7.28
2022-12-23T08:10:12.173Z,7.25
2022-12-23T08:12:38.796Z,7.25
2022-12-23T08:15:05.888Z,7.27
2022-12-23T08:17:32.357Z,7.27
2022-12-23T08:19:58.787Z,7.27
2022-12-23T08:22:25.356Z,7.29
2022-12-23T08:24:52.556Z,7.29
2022-12-23T08:27:19.505Z,7.28
2022-12-23T08:29:45.907Z,7.29
2022-12-23T08:32:12.438Z,7.30
2022-12-23T08:34:39.015Z,7.30
2022-12-23T08:37:05.450Z,7.30
2022-12-23T08:39:32.037Z,7.32
2022-12-23T08:41:58.790Z,7.32
2022-12-23T08:44:28.352Z,7.30
2022-12-23T08:46:55.625Z,7.32
2022-12-23T08:49:22.156Z,7.32
2022-12-23T08:51:48.847Z,7.33
2022-12-23T08:54:15.799Z,7.34
2022-12-23T08:56:42.811Z,7.34
2022-12-23T08:59:18.685Z,7.35
2022-12-23T09:01:47.178Z,7.36
2022-12-23T09:04:13.684Z,7.35
2022-12-23T09:06:42.068Z,7.36
2022-12-23T09:09:10.501Z,7.37
2022-12-23T09:11:37.425Z,7.37
2022-12-23T09:14:04.701Z,7.37
2022-12-23T09:16:31.526Z,7.38
2022-12-23T09:18:58.161Z,7.39
2022-12-23T09:21:24.904Z,7.39
2022-12-23T09:23:51.869Z,7.39
2022-12-23T09:26:27.006Z,7.37
2022-12-23T09:28:54.049Z,7.37
2022-12-23T09:31:21.615Z,7.40
2022-12-23T09:33:49.901Z,7.42
2022-12-23T09:36:17.206Z,7.43
2022-12-23T09:38:43.723Z,7.44
2022-12-23T09:41:36.035Z,7.40
2022-12-23T09:44:20.152Z,7.42
2022-12-23T09:47:00.647Z,7.44
2022-12-23T09:49:27.545Z,7.44
2022-12-23T09:52:00.242Z,7.46
2022-12-23T09:54:29.395Z,7.45
2022-12-23T09:57:03.637Z,7.47
2022-12-23T09:59:52.172Z,7.48
2022-12-23T10:03:00.481Z,7.49
2022-12-23T10:05:59.079Z,7.48
2022-12-23T10:08:28.597Z,7.49
2022-12-23T10:11:03.522Z,7.50
2022-12-23T10:13:38.154Z,7.50
2022-12-23T10:16:13.224Z,7.49
2022-12-23T10:18:55.676Z,7.51
2022-12-23T10:21:48.159Z,7.52
2022-12-23T10:24:24.289Z,7.53
2022-12-23T10:26:57.412Z,7.55
2022-12-23T10:29:33.909Z,7.56
2022-12-23T10:32:26.413Z,7.58
2022-12-23T10:35:20.905Z,7.56
2022-12-23T10:38:04.042Z,7.56
2022-12-23T10:40:30.371Z,7.59
2022-12-23T10:43:27.316Z,7.58
2022-12-23T10:46:10.227Z,7.60
2022-12-23T10:49:06.088Z,7.61
2022-12-23T10:51:47.378Z,7.57
2022-12-23T10:54:32.266Z,7.61
2022-12-23T10:56:59.030Z,7.59
2022-12-23T10:59:31.775Z,7.61
2022-12-23T11:02:28.030Z,7.60
2022-12-23T11:04:54.574Z,7.61
2022-12-23T11:07:44.220Z,7.67
2022-12-23T11:10:20.809Z,7.65
2022-12-23T11:12:50.806Z,7.67
2022-12-23T11:15:26.497Z,7.70
2022-12-23T11:18:11.547Z,7.70
2022-12-23T11:20:40.197Z,7.74
2022-12-23T11:23:23.861Z,7.72
2022-12-23T11:26:01.525Z,7.75
2022-12-23T11:28:28.922Z,7.72
2022-12-23T11:31:09.726Z,7.75
2022-12-23T11:33:39.627Z,7.76
2022-12-23T11:36:12.134Z,7.81
2022-12-23T11:38:51.675Z,7.82
2022-12-23T11:41:24.969Z,7.84
2022-12-23T11:43:59.447Z,7.84
2022-12-23T11:46:34.454Z,7.84
2022-12-23T11:49:22.263Z,7.82
2022-12-23T11:52:04.827Z,7.87
2022-12-23T11:54:32.364Z,7.88
2022-12-23T11:57:01.525Z,7.89
2022-12-23T11:59:39.614Z,7.91
2022-12-23T12:02:18.756Z,7.90
2022-12-23T12:05:01.037Z,7.91
2022-12-23T12:07:27.794Z,7.92
2022-12-23T12:09:59.100Z,7.93
2022-12-23T12:12:27.479Z,7.94
2022-12-23T12:14:56.579Z,7.94
2022-12-23T12:17:46.941Z,7.92
2022-12-23T12:20:28.966Z,7.94
2022-12-23T12:23:29.482Z,7.94
2022-12-23T12:26:04.627Z,7.94
2022-12-23T12:28:41.993Z,7.92
2022-12-23T12:31:20.331Z,7.96
2022-12-23T12:33:57.719Z,7.96
2022-12-23T12:36:43.727Z,7.94
2022-12-23T12:39:21.154Z,7.98
2022-12-23T12:42:01.821Z,7.99
2022-12-23T12:44:43.379Z,7.96
2022-12-23T12:47:28.507Z,7.98
2022-12-23T12:50:07.664Z,7.99
2022-12-23T12:52:40.346Z,7.99
2022-12-23T12:55:33.019Z,8.01
2022-12-23T12:58:02.808Z,8.00
2022-12-23T13:00:43.371Z,8.01
2022-12-23T13:03:24.876Z,8.02
2022-12-23T13:06:22.222Z,8.00
2022-12-23T13:08:55.991Z,8.01
2022-12-23T13:11:37.701Z,8.03
2022-12-23T13:14:15.700Z,8.03
2022-12-23T13:16:48.159Z,8.05
2022-12-23T13:19:27.174Z,8.06
2022-12-23T13:22:08.921Z,8.02
2022-12-23T13:25:06.044Z,8.04
2022-12-23T13:27:46.419Z,8.00
2022-12-23T13:30:17.789Z,8.06
2022-12-23T13:33:02.062Z,8.08
2022-12-23T13:35:33.275Z,8.06
2022-12-23T13:38:22.848Z,8.06
2022-12-23T13:41:06.462Z,8.05
2022-12-23T13:43:43.554Z,8.06
2022-12-23T13:46:31.693Z,8.04
2022-12-23T13:49:02.403Z,8.08
2022-12-23T13:52:00.304Z,8.07
2022-12-23T13:54:50.699Z,8.06
2022-12-23T13:57:45.041Z,8.04
2022-12-23T14:00:17.780Z,8.06
2022-12-23T14:03:02.753Z,8.08
2022-12-23T14:05:44.843Z,8.07
2022-12-23T14:08:29.215Z,8.05
2022-12-23T14:10:57.108Z,8.01
2022-12-23T14:13:30.229Z,8.03
2022-12-23T14:16:19.340Z,8.04
2022-12-23T14:19:01.955Z,8.02
2022-12-23T14:21:41.571Z,8.04
2022-12-23T14:24:23.031Z,8.04
2022-12-23T14:27:14.821Z,8.03
2022-12-23T14:30:19.447Z,8.02
2022-12-23T14:32:51.551Z,8.01
2022-12-23T14:35:20.868Z,8.02
2022-12-23T14:38:15.721Z,8.00
2022-12-23T14:40:42.063Z,8.02
2022-12-23T14:43:25.391Z,7.98
2022-12-23T14:45:57.065Z,7.99
2022-12-23T14:48:35.644Z,7.97
2022-12-23T14:51:09.059Z,7.96
2022-12-23T14:53:56.933Z,7.97
2022-12-23T14:56:38.560Z,7.95
2022-12-23T14:59:23.290Z,7.95
2022-12-23T15:01:56.700Z,7.94
2022-12-23T15:04:33.617Z,7.92
2022-12-23T15:07:05.334Z,7.94
2022-12-23T15:09:37.400Z,7.93
2022-12-23T15:12:18.697Z,7.90
2022-12-23T15:14:55.488Z,7.92
2022-12-23T15:17:27.534Z,7.92
2022-12-23T15:20:02.246Z,7.89
2022-12-23T15:22:32.806Z,7.92
2022-12-23T15:24:59.432Z,7.92
2022-12-23T15:27:29.826Z,7.91
2022-12-23T15:29:57.631Z,7.92
2022-12-23T15:32:26.156Z,7.92
2022-12-23T15:35:02.283Z,7.92
2022-12-23T15:37:30.745Z,7.90
2022-12-23T15:40:04.879Z,7.91
2022-12-23T15:42:38.192Z,7.92
2022-12-23T15:45:31.224Z,7.89
2022-12-23T15:47:57.860Z,7.88
2022-12-23T15:50:24.664Z,7.92
2022-12-23T15:52:54.414Z,7.89
2022-12-23T15:55:27.673Z,7.90
2022-12-23T15:57:54.413Z,7.88
2022-12-23T16:00:24.610Z,7.92
2022-12-23T16:03:02.465Z,7.91
2022-12-23T16:05:35.740Z,7.92
2022-12-23T16:08:24.600Z,7.92
2022-12-23T16:11:01.036Z,7.91
2022-12-23T16:13:27.500Z,7.88
2022-12-23T16:15:54.977Z,7.91
2022-12-23T16:18:29.866Z,7.92
2022-12-23T16:21:00.640Z,7.90
2022-12-23T16:23:32.919Z,7.88
2022-12-23T16:26:01.520Z,7.92
2022-12-23T16:28:34.905Z,7.91
2022-12-23T16:31:05.409Z,7.91
2022-12-23T16:33:36.926Z,7.91
2022-12-23T16:36:22.168Z,7.90
2022-12-23T16:38:49.719Z,7.91
2022-12-23T16:41:16.427Z,7.90
2022-12-23T16:43:51.493Z,7.90
2022-12-23T16:46:20.936Z,7.90
2022-12-23T16:48:50.371Z,7.90
2022-12-23T16:51:20.204Z,7.90
2022-12-23T16:53:51.695Z,7.90
2022-12-23T16:56:20.788Z,7.90
2022-12-23T16:58:47.236Z,7.89
2022-12-23T17:01:26.961Z,7.89
2022-12-23T17:03:53.977Z,7.86
2022-12-23T17:06:20.712Z,7.89
2022-12-23T17:08:47.582Z,7.88
2022-12-23T17:11:23.252Z,7.86
2022-12-23T17:13:49.732Z,7.89
2022-12-23T17:16:21.886Z,7.88
2022-12-23T17:18:49.521Z,7.89
2022-12-23T17:21:27.980Z,7.85
2022-12-23T17:24:02.215Z,7.88
2022-12-23T17:26:28.644Z,7.86
2022-12-23T17:28:55.064Z,7.87
2022-12-23T17:31:27.056Z,7.88
2022-12-23T17:33:54.384Z,7.86
2022-12-23T17:36:21.484Z,7.88
2022-12-23T17:38:47.964Z,7.87
2022-12-23T17:41:23.348Z,7.86
2022-12-23T17:43:49.812Z,7.87
2022-12-23T17:46:16.344Z,7.87
2022-12-23T17:48:42.915Z,7.87
2022-12-23T17:51:15.156Z,7.85
2022-12-23T17:53:42.119Z,7.87
2022-12-23T17:56:16.799Z,7.86
2022-12-23T17:58:45.084Z,7.81
2022-12-23T18:01:24.903Z,7.83
2022-12-23T18:03:52.364Z,7.84
2022-12-23T18:06:21.425Z,7.84
2022-12-23T18:08:48.605Z,7.85
2022-12-23T18:11:38.409Z,7.83
2022-12-23T18:14:04.925Z,7.81
2022-12-23T18:16:31.481Z,7.83
2022-12-23T18:18:58.031Z,7.83
2022-12-23T18:21:26.801Z,7.83
2022-12-23T18:23:59.447Z,7.83
2022-12-23T18:26:26.454Z,7.83
2022-12-23T18:28:54.095Z,7.80
2022-12-23T18:31:24.063Z,7.83
2022-12-23T18:33:51.003Z,7.80
2022-12-23T18:36:25.491Z,7.82
2022-12-23T18:38:52.570Z,7.79
2022-12-23T18:41:19.953Z,7.81
2022-12-23T18:43:46.591Z,7.80
2022-12-23T18:46:13.337Z,7.79
2022-12-23T18:48:39.812Z,7.80
2022-12-23T18:51:06.508Z,7.79
2022-12-23T18:53:32.946Z,7.81
2022-12-23T18:55:59.461Z,7.80
2022-12-23T18:58:25.921Z,7.79
2022-12-23T19:00:56.743Z,7.79
2022-12-23T19:03:30.974Z,7.78
2022-12-23T19:05:58.330Z,7.73
2022-12-23T19:08:27.503Z,7.75
2022-12-23T19:10:55.429Z,7.74
2022-12-23T19:13:21.895Z,7.73
2022-12-23T19:15:48.482Z,7.74
2022-12-23T19:18:17.207Z,7.75
2022-12-23T19:20:45.219Z,7.74
2022-12-23T19:23:11.699Z,7.75
2022-12-23T19:25:42.200Z,7.74
2022-12-23T19:28:09.571Z,7.75
2022-12-23T19:30:36.326Z,7.71
2022-12-23T19:33:02.835Z,7.73
2022-12-23T19:35:29.233Z,7.70
2022-12-23T19:37:55.744Z,7.73
2022-12-23T23:40:01.079Z,7.38
2022-12-23T23:42:27.732Z,7.37
2022-12-23T23:44:54.297Z,7.39
2022-12-23T23:47:20.749Z,7.42
2022-12-23T23:49:47.192Z,7.39
2022-12-23T23:52:13.687Z,7.42
2022-12-23T23:54:40.137Z,7.41
2022-12-23T23:57:06.548Z,7.42
2022-12-23T23:59:32.990Z,7.42
